Time;durP1;ratioP1;P1;durP2;ratioP2;P2;SDS_P1;SDS_P2;PMS_P1;PMS_P2;Temp;Humidity;BMP_temperature;BMP_pressure;BME280_temperature;BME280_humidity;BME280_pressure;Samples;Min_cycle;Max_cycle;Signal;HPM_P1;HPM_P2
2023/11/30 00:00:58;;;;;;;3.73;2.40;;;-2.20;99.90;;;;;;2064074;28;20186;-82
2023/11/30 00:01:59;;;;;;;5.93;3.20;;;-2.20;99.90;;;;;;2060944;28;20208;-82
2023/11/30 00:03:00;;;;;;;3.53;2.73;;;-2.10;99.90;;;;;;2064195;28;20190;-83
2023/11/30 00:04:00;;;;;;;5.80;3.00;;;-2.10;99.90;;;;;;2064995;28;20213;-82
2023/11/30 00:05:03;;;;;;;3.83;2.00;;;-2.00;99.90;;;;;;2056499;28;20186;-82
2023/11/30 00:06:04;;;;;;;4.47;2.60;;;-2.10;99.90;;;;;;2048808;28;20671;-83
2023/11/30 00:07:10;;;;;;;3.90;2.80;;;-2.10;99.90;;;;;;2056381;28;20244;-82
2023/11/30 00:08:10;;;;;;;4.50;3.47;;;-2.00;99.90;;;;;;2057233;28;20309;-82
2023/11/30 00:09:11;;;;;;;3.63;2.63;;;-2.00;99.90;;;;;;2064986;28;20222;-81
2023/11/30 00:10:12;;;;;;;5.07;2.73;;;-2.00;99.90;;;;;;2065196;28;20726;-81
2023/11/30 00:11:13;;;;;;;3.97;2.10;;;-1.90;99.90;;;;;;2056255;28;20309;-82
2023/11/30 00:12:13;;;;;;;4.17;2.57;;;-2.00;99.90;;;;;;2056985;28;20877;-83
2023/11/30 00:13:14;;;;;;;5.70;2.60;;;-2.00;99.90;;;;;;2051953;28;20301;-83
2023/11/30 00:14:15;;;;;;;4.70;3.23;;;-1.90;99.90;;;;;;2055953;28;20234;-82
2023/11/30 00:15:15;;;;;;;3.57;2.37;;;-1.90;99.90;;;;;;2055872;28;20234;-82
2023/11/30 00:16:16;;;;;;;3.53;2.10;;;-1.90;99.90;;;;;;2071224;28;20224;-81
2023/11/30 00:17:17;;;;;;;2.97;1.80;;;-2.00;99.90;;;;;;2076267;28;20222;-81
2023/11/30 00:18:17;;;;;;;3.17;2.60;;;-2.00;99.90;;;;;;2061046;28;20230;-82
2023/11/30 00:19:18;;;;;;;3.00;1.67;;;-1.90;99.90;;;;;;2068262;28;20230;-81
2023/11/30 00:20:19;;;;;;;4.13;3.00;;;-1.90;99.90;;;;;;2068308;28;20237;-81
2023/11/30 00:21:19;;;;;;;3.10;2.13;;;-1.80;99.90;;;;;;2064806;28;20346;-82
2023/11/30 00:22:20;;;;;;;3.37;1.93;;;-1.80;99.90;;;;;;2067309;28;20257;-82
2023/11/30 00:23:21;;;;;;;2.87;2.10;;;-1.80;99.90;;;;;;2070095;28;20690;-83
2023/11/30 00:24:21;;;;;;;2.93;2.03;;;-1.80;99.90;;;;;;2064247;28;20226;-82
2023/11/30 00:25:22;;;;;;;2.63;1.77;;;-1.60;99.90;;;;;;2073383;28;20774;-82
2023/11/30 00:26:23;;;;;;;3.57;2.43;;;-1.60;99.90;;;;;;2073310;28;20339;-82
2023/11/30 00:27:23;;;;;;;2.93;1.57;;;-1.60;99.90;;;;;;2072748;28;20320;-82
2023/11/30 00:28:24;;;;;;;3.30;1.80;;;-1.50;99.90;;;;;;2073037;28;21085;-81
2023/11/30 00:29:25;;;;;;;2.27;1.80;;;-1.60;99.90;;;;;;2078371;28;20244;-81
2023/11/30 00:30:26;;;;;;;3.10;1.73;;;-1.60;99.90;;;;;;2079652;28;20236;-83
2023/11/30 00:31:26;;;;;;;3.40;2.40;;;-1.60;99.90;;;;;;2078269;28;20244;-82
2023/11/30 00:32:27;;;;;;;3.77;2.53;;;-1.60;99.90;;;;;;2063299;28;20245;-83
2023/11/30 00:33:28;;;;;;;5.00;2.20;;;-1.60;99.90;;;;;;2065121;28;20285;-83
2023/11/30 00:34:28;;;;;;;3.43;2.30;;;-1.70;99.90;;;;;;2059760;28;20345;-82
2023/11/30 00:35:29;;;;;;;7.53;2.60;;;-1.60;99.90;;;;;;2073822;28;20280;-82
2023/11/30 00:36:30;;;;;;;2.53;2.27;;;-1.60;99.90;;;;;;2065339;28;20218;-83
2023/11/30 00:37:30;;;;;;;3.60;2.90;;;-1.60;99.90;;;;;;2064976;28;20601;-83
2023/11/30 00:38:31;;;;;;;3.77;2.40;;;-1.50;99.90;;;;;;2064991;28;20300;-82
2023/11/30 00:39:32;;;;;;;3.63;2.60;;;-1.50;99.90;;;;;;2072765;28;20308;-82
2023/11/30 00:40:33;;;;;;;4.10;3.25;;;-1.50;99.90;;;;;;2070611;28;20253;-82
2023/11/30 00:41:34;;;;;;;3.00;1.90;;;-1.50;99.90;;;;;;2062612;28;20242;-81
2023/11/30 00:42:34;;;;;;;3.93;2.27;;;-1.50;99.90;;;;;;2069944;28;20306;-82
2023/11/30 00:43:35;;;;;;;3.00;1.70;;;-1.50;99.90;;;;;;2075464;28;20225;-82
2023/11/30 00:44:36;;;;;;;5.53;2.70;;;-1.50;99.90;;;;;;2070232;28;20285;-83
2023/11/30 00:45:36;;;;;;;3.50;2.53;;;-1.50;99.90;;;;;;2069539;28;20236;-81
2023/11/30 00:46:37;;;;;;;4.60;3.20;;;-1.40;99.90;;;;;;2074278;28;20598;-82
2023/11/30 00:47:38;;;;;;;3.67;2.57;;;-1.40;99.90;;;;;;2077721;28;20233;-82
2023/11/30 00:48:39;;;;;;;4.33;2.60;;;-1.40;99.90;;;;;;2077495;28;20225;-82
2023/11/30 00:49:39;;;;;;;5.00;3.13;;;-1.40;99.90;;;;;;2080544;28;20231;-81
2023/11/30 00:50:40;;;;;;;4.10;2.43;;;-1.40;99.90;;;;;;2080931;28;20232;-82
2023/11/30 00:51:41;;;;;;;3.40;2.10;;;-1.50;99.90;;;;;;2073313;28;20256;-81
2023/11/30 00:52:41;;;;;;;3.57;2.27;;;-1.50;99.90;;;;;;2082204;28;20279;-83
2023/11/30 00:53:42;;;;;;;3.20;2.10;;;-1.60;99.90;;;;;;2089788;28;20232;-83
2023/11/30 00:54:43;;;;;;;3.85;2.42;;;-1.60;99.90;;;;;;2081378;28;20689;-82
2023/11/30 00:55:44;;;;;;;5.97;3.20;;;-1.60;99.90;;;;;;2062965;28;20233;-83
2023/11/30 00:56:44;;;;;;;7.27;2.50;;;-1.60;99.90;;;;;;2078132;28;20245;-81
2023/11/30 00:57:45;;;;;;;4.80;3.07;;;-1.60;99.90;;;;;;2077840;28;20240;-81
2023/11/30 00:58:46;;;;;;;3.23;2.40;;;-1.60;99.90;;;;;;2067614;28;20264;-82
2023/11/30 00:59:46;;;;;;;3.27;2.67;;;-1.50;99.90;;;;;;2062437;28;20260;-82
2023/11/30 01:00:47;;;;;;;4.53;2.70;;;-1.40;99.90;;;;;;2062918;28;20262;-83
2023/11/30 01:01:48;;;;;;;4.23;2.70;;;-1.40;99.90;;;;;;2072221;28;20752;-82
2023/11/30 01:02:49;;;;;;;4.17;2.80;;;-1.50;99.90;;;;;;2076606;28;20224;-80
2023/11/30 01:03:49;;;;;;;3.70;2.47;;;-1.40;99.90;;;;;;2065855;28;20286;-81
2023/11/30 01:04:50;;;;;;;3.97;2.57;;;-1.40;99.90;;;;;;2072513;28;20210;-82
2023/11/30 01:05:51;;;;;;;3.97;2.40;;;-1.50;99.90;;;;;;2082114;28;20241;-82
2023/11/30 01:06:51;;;;;;;2.87;2.30;;;-1.60;99.90;;;;;;2074251;28;20285;-82
2023/11/30 01:07:52;;;;;;;3.63;2.60;;;-1.60;99.90;;;;;;2064644;28;20187;-81
2023/11/30 01:08:53;;;;;;;3.07;2.40;;;-1.60;99.90;;;;;;2081025;28;20208;-83
2023/11/30 01:09:54;;;;;;;3.60;2.30;;;-1.50;99.90;;;;;;2065557;28;20298;-82
2023/11/30 01:10:54;;;;;;;3.22;2.25;;;-1.50;99.90;;;;;;2066075;28;20202;-82
2023/11/30 01:11:55;;;;;;;4.47;2.63;;;-1.60;99.90;;;;;;2074014;28;20296;-82
2023/11/30 01:12:56;;;;;;;5.23;2.87;;;-1.60;99.90;;;;;;2073779;28;20278;-82
2023/11/30 01:13:56;;;;;;;3.27;2.23;;;-1.60;99.90;;;;;;2066316;28;20175;-82
2023/11/30 01:14:57;;;;;;;5.00;2.40;;;-1.60;99.90;;;;;;2059953;28;20187;-83
2023/11/30 01:15:58;;;;;;;4.33;2.40;;;-1.50;99.90;;;;;;2058545;28;20637;-82
2023/11/30 01:16:58;;;;;;;3.53;2.50;;;-1.40;99.90;;;;;;2057326;28;20189;-81
2023/11/30 01:17:59;;;;;;;5.83;2.70;;;-1.30;99.90;;;;;;2058110;28;20187;-82
2023/11/30 01:19:00;;;;;;;3.70;2.53;;;-1.30;99.90;;;;;;2066335;28;20178;-79
2023/11/30 01:20:00;;;;;;;4.27;2.43;;;-1.30;99.90;;;;;;2081029;28;20206;-82
2023/11/30 01:21:01;;;;;;;4.87;2.53;;;-1.40;99.90;;;;;;2090158;28;20208;-83
2023/11/30 01:22:02;;;;;;;3.50;2.60;;;-1.40;99.90;;;;;;2083013;28;20297;-81
2023/11/30 01:23:03;;;;;;;4.67;3.47;;;-1.40;99.90;;;;;;2067427;28;20614;-83
2023/11/30 01:24:04;;;;;;;3.00;2.47;;;-1.40;99.90;;;;;;2062342;28;20248;-82
2023/11/30 01:25:07;;;;;;;2.65;2.05;;;-1.40;99.90;;;;;;2073223;28;20296;-82
2023/11/30 01:26:07;;;;;;;3.97;2.15;;;-1.40;99.90;;;;;;2066275;28;20175;-82
2023/11/30 01:27:08;;;;;;;2.43;2.00;;;-1.40;99.90;;;;;;2065131;28;20223;-82
2023/11/30 01:28:10;;;;;;;6.53;3.03;;;-1.20;99.90;;;;;;2057833;28;20290;-81
2023/11/30 01:29:10;;;;;;;3.95;2.58;;;-1.20;99.90;;;;;;2069699;28;20233;-81
2023/11/30 01:30:12;;;;;;;3.10;2.37;;;-1.20;99.90;;;;;;2067946;28;20221;-81
2023/11/30 01:31:13;;;;;;;4.28;2.55;;;-1.30;99.90;;;;;;2067945;28;20229;-81
2023/11/30 01:32:14;;;;;;;4.13;2.08;;;-1.20;99.90;;;;;;2072552;28;20271;-82
2023/11/30 01:33:14;;;;;;;3.77;2.80;;;-1.30;99.90;;;;;;2065420;28;20233;-82
2023/11/30 01:34:15;;;;;;;3.37;1.93;;;-1.30;99.90;;;;;;2069068;28;20597;-82
2023/11/30 01:35:17;;;;;;;4.67;2.90;;;-1.30;99.90;;;;;;2072035;28;20236;-82
2023/11/30 01:36:17;;;;;;;3.47;2.42;;;-1.30;99.90;;;;;;2071092;28;20232;-83
2023/11/30 01:37:18;;;;;;;3.67;2.60;;;-1.20;99.90;;;;;;2073340;28;20256;-82
2023/11/30 01:38:18;;;;;;;2.83;2.03;;;-1.30;99.90;;;;;;2064958;28;20317;-81
2023/11/30 01:39:19;;;;;;;3.13;1.83;;;-1.30;99.90;;;;;;2061606;28;20250;-82
2023/11/30 01:40:20;;;;;;;7.70;3.33;;;-1.20;99.90;;;;;;2065341;28;20265;-82
2023/11/30 01:41:21;;;;;;;5.33;3.50;;;-1.20;99.90;;;;;;2068219;28;20738;-81
2023/11/30 01:42:22;;;;;;;2.63;2.43;;;-1.20;99.90;;;;;;2069796;28;20232;-81
2023/11/30 01:43:23;;;;;;;5.20;2.65;;;-1.20;99.90;;;;;;2069065;28;20495;-82
2023/11/30 01:44:23;;;;;;;5.30;2.80;;;-1.30;99.90;;;;;;2072660;28;20237;-83
2023/11/30 01:45:24;;;;;;;4.20;2.80;;;-1.30;99.90;;;;;;2068539;28;20980;-81
2023/11/30 01:46:25;;;;;;;5.23;2.60;;;-1.20;99.90;;;;;;2073818;28;20247;-82
2023/11/30 01:47:26;;;;;;;3.50;2.53;;;-1.20;99.90;;;;;;2081393;28;20244;-82
2023/11/30 01:48:26;;;;;;;3.23;2.53;;;-1.20;99.90;;;;;;2078033;28;20691;-81
2023/11/30 01:49:27;;;;;;;3.17;2.73;;;-1.20;99.90;;;;;;2062308;28;20238;-82
2023/11/30 01:50:28;;;;;;;4.10;3.23;;;-1.20;99.90;;;;;;2062049;28;20233;-81
2023/11/30 01:51:31;;;;;;;4.57;2.50;;;-1.20;99.90;;;;;;2068857;28;20534;-83
2023/11/30 01:52:32;;;;;;;3.60;2.53;;;-1.10;99.90;;;;;;2058269;28;20231;-82
2023/11/30 01:53:37;;;;;;;3.73;2.33;;;-1.00;99.90;;;;;;2059828;28;20820;-82
2023/11/30 01:54:38;;;;;;;4.25;2.75;;;-1.10;99.90;;;;;;2066137;28;20218;-81
2023/11/30 01:55:41;;;;;;;3.28;2.05;;;-1.20;99.90;;;;;;2056687;28;20723;-82
2023/11/30 01:56:42;;;;;;;4.35;3.60;;;-1.20;99.90;;;;;;2064967;28;20221;-81
2023/11/30 01:57:43;;;;;;;3.97;3.03;;;-1.10;99.90;;;;;;2060958;28;20248;-82
2023/11/30 01:58:45;;;;;;;4.13;2.50;;;-1.10;99.90;;;;;;2054597;28;20219;-81
2023/11/30 01:59:48;;;;;;;5.43;2.55;;;-1.20;99.90;;;;;;2062779;28;20721;-82
2023/11/30 02:00:49;;;;;;;2.58;1.90;;;-1.20;99.90;;;;;;2062877;28;20703;-81
2023/11/30 02:01:49;;;;;;;2.92;2.30;;;-1.20;99.90;;;;;;2062994;28;20229;-81
2023/11/30 02:02:51;;;;;;;3.43;2.73;;;-1.30;99.90;;;;;;2065956;28;20325;-81
2023/11/30 02:03:54;;;;;;;3.33;2.60;;;-1.20;99.90;;;;;;2065773;28;20182;-81
2023/11/30 02:04:54;;;;;;;3.13;2.30;;;-1.20;99.90;;;;;;2062775;28;20269;-83
2023/11/30 02:05:55;;;;;;;3.20;2.30;;;-1.30;99.90;;;;;;2059513;28;20245;-81
2023/11/30 02:06:56;;;;;;;4.40;2.50;;;-1.30;99.90;;;;;;2049137;28;20183;-82
2023/11/30 02:07:56;;;;;;;5.03;3.43;;;-1.20;99.90;;;;;;2060201;28;20186;-81
2023/11/30 02:08:57;;;;;;;4.07;2.13;;;-1.30;99.90;;;;;;2058323;28;20189;-81
2023/11/30 02:09:58;;;;;;;3.33;2.63;;;-1.20;99.90;;;;;;2070637;28;20217;-82
2023/11/30 02:10:59;;;;;;;5.40;3.20;;;-1.20;99.90;;;;;;2065184;28;20186;-82
2023/11/30 02:12:01;;;;;;;4.53;3.10;;;-1.20;99.90;;;;;;2054798;28;20211;-82
2023/11/30 02:13:01;;;;;;;2.78;2.38;;;-1.20;99.90;;;;;;2057358;28;20190;-83
2023/11/30 02:14:06;;;;;;;3.93;3.00;;;-1.20;99.90;;;;;;2056030;28;20213;-81
2023/11/30 02:15:07;;;;;;;3.53;2.83;;;-1.20;99.90;;;;;;2072137;28;20627;-83
2023/11/30 02:16:09;;;;;;;5.25;3.03;;;-1.20;99.90;;;;;;2064072;28;20193;-83
2023/11/30 02:17:09;;;;;;;3.35;2.38;;;-1.20;99.90;;;;;;2072332;28;20229;-83
2023/11/30 02:18:10;;;;;;;3.63;2.00;;;-1.20;99.90;;;;;;2072067;28;20260;-82
2023/11/30 02:19:11;;;;;;;3.50;2.50;;;-1.30;99.90;;;;;;2055561;28;20234;-81
2023/11/30 02:20:12;;;;;;;4.20;2.30;;;-1.30;99.90;;;;;;2069162;28;20733;-82
2023/11/30 02:21:13;;;;;;;5.55;2.80;;;-1.30;99.90;;;;;;2064177;28;20233;-82
2023/11/30 02:22:14;;;;;;;3.63;2.27;;;-1.20;99.90;;;;;;2064589;28;20228;-82
2023/11/30 02:23:14;;;;;;;4.50;2.70;;;-1.20;99.90;;;;;;2071249;28;20316;-82
2023/11/30 02:24:15;;;;;;;2.93;2.63;;;-1.30;99.90;;;;;;2065296;28;20313;-81
2023/11/30 02:25:15;;;;;;;2.93;2.50;;;-1.30;99.90;;;;;;2072419;28;20754;-83
2023/11/30 02:26:17;;;;;;;3.80;2.40;;;-1.20;99.90;;;;;;2071934;28;20249;-81
2023/11/30 02:27:18;;;;;;;4.35;2.92;;;-1.20;99.90;;;;;;2069885;28;20241;-82
2023/11/30 02:28:19;;;;;;;3.13;2.10;;;-1.20;99.90;;;;;;2064599;28;20725;-82
2023/11/30 02:29:20;;;;;;;2.10;1.90;;;-1.10;99.90;;;;;;2060132;28;20230;-82
2023/11/30 02:30:20;;;;;;;2.97;1.73;;;-1.10;99.90;;;;;;2073639;28;20226;-82
2023/11/30 02:31:21;;;;;;;3.23;2.40;;;-1.10;99.90;;;;;;2070044;28;20233;-82
2023/11/30 02:32:21;;;;;;;1.97;1.77;;;-1.10;99.90;;;;;;2063882;28;20232;-82
2023/11/30 02:33:22;;;;;;;2.13;1.63;;;-1.10;99.90;;;;;;2064582;28;20277;-81
2023/11/30 02:34:23;;;;;;;4.10;2.23;;;-1.10;99.90;;;;;;2072165;28;20236;-81
2023/11/30 02:35:24;;;;;;;1.97;1.73;;;-1.10;99.90;;;;;;2063840;28;20226;-83
2023/11/30 02:36:25;;;;;;;2.60;1.63;;;-1.10;99.90;;;;;;2056441;28;20322;-82
2023/11/30 02:37:25;;;;;;;3.00;1.93;;;-1.10;99.90;;;;;;2066196;28;20286;-83
2023/11/30 02:38:26;;;;;;;3.17;2.00;;;-1.10;99.90;;;;;;2067460;28;20230;-83
2023/11/30 02:39:27;;;;;;;3.50;2.63;;;-1.20;99.90;;;;;;2057786;28;20230;-81
2023/11/30 02:40:27;;;;;;;3.43;2.43;;;-1.10;99.90;;;;;;2056863;28;20229;-82
2023/11/30 02:41:28;;;;;;;2.50;1.77;;;-1.10;99.90;;;;;;2053026;28;20302;-81
2023/11/30 02:42:29;;;;;;;4.22;2.10;;;-1.20;99.90;;;;;;2062188;28;20346;-81
2023/11/30 02:43:30;;;;;;;3.53;2.30;;;-1.20;99.90;;;;;;2074353;28;20241;-84
2023/11/30 02:44:30;;;;;;;3.27;2.27;;;-1.20;99.90;;;;;;2078243;28;20601;-83
2023/11/30 02:45:31;;;;;;;3.27;2.40;;;-1.20;99.90;;;;;;2065979;28;20215;-84
2023/11/30 02:46:32;;;;;;;3.33;2.57;;;-1.20;99.90;;;;;;2072441;28;20234;-82
2023/11/30 02:47:32;;;;;;;2.53;1.93;;;-1.30;99.90;;;;;;2084529;28;20245;-82
2023/11/30 02:48:33;;;;;;;3.00;2.03;;;-1.30;99.90;;;;;;2075760;28;20237;-83
2023/11/30 02:49:34;;;;;;;5.80;2.40;;;-1.30;99.90;;;;;;2070778;28;20226;-82
2023/11/30 02:50:34;;;;;;;2.57;1.43;;;-1.30;99.90;;;;;;2076487;28;20663;-83
2023/11/30 02:51:36;;;;;;;1.70;1.40;;;-1.20;99.90;;;;;;2073147;28;20278;-82
2023/11/30 02:52:37;;;;;;;2.08;1.40;;;-1.20;99.90;;;;;;2072833;28;20248;-82
2023/11/30 02:53:37;;;;;;;2.97;1.97;;;-1.10;99.90;;;;;;2050208;28;20306;-83
2023/11/30 02:54:38;;;;;;;1.77;1.50;;;-1.10;99.90;;;;;;2062340;28;20818;-82
2023/11/30 02:55:39;;;;;;;2.07;1.70;;;-1.10;99.90;;;;;;2076921;28;20235;-82
2023/11/30 02:56:40;;;;;;;2.67;1.80;;;-1.00;99.90;;;;;;2071396;28;20275;-82
2023/11/30 02:57:41;;;;;;;3.05;1.67;;;-1.00;99.90;;;;;;2064367;28;20226;-82
2023/11/30 02:58:42;;;;;;;2.13;1.33;;;-0.90;99.90;;;;;;2078718;28;20536;-82
2023/11/30 02:59:43;;;;;;;2.43;1.40;;;-0.90;99.90;;;;;;2065085;28;20222;-82
2023/11/30 03:00:43;;;;;;;1.27;1.07;;;-0.90;99.90;;;;;;2072622;28;20571;-83
2023/11/30 03:01:46;;;;;;;2.23;1.80;;;-0.80;99.90;;;;;;2069437;28;20222;-82
2023/11/30 03:02:46;;;;;;;3.83;1.70;;;-0.70;99.90;;;;;;2054128;28;20668;-82
2023/11/30 03:03:47;;;;;;;2.10;1.70;;;-0.70;99.90;;;;;;2075910;28;20213;-83
2023/11/30 03:04:48;;;;;;;2.17;1.73;;;-0.60;99.90;;;;;;2081300;28;20248;-83
2023/11/30 03:05:49;;;;;;;2.43;1.20;;;-0.60;99.90;;;;;;2065025;28;20241;-81
2023/11/30 03:06:50;;;;;;;1.20;1.10;;;-0.60;99.90;;;;;;2063719;28;20557;-81
2023/11/30 03:07:52;;;;;;;1.65;1.40;;;-0.60;99.90;;;;;;2074796;28;20174;-83
2023/11/30 03:08:52;;;;;;;1.55;1.45;;;-0.60;99.90;;;;;;2087886;28;20192;-83
2023/11/30 03:09:53;;;;;;;1.90;1.70;;;-0.50;99.90;;;;;;2073238;28;20205;-82
2023/11/30 03:10:54;;;;;;;1.87;1.30;;;-0.50;99.90;;;;;;2059041;28;20808;-83
2023/11/30 03:11:54;;;;;;;2.47;1.83;;;-0.40;99.90;;;;;;2058172;28;20210;-83
2023/11/30 03:12:55;;;;;;;2.13;1.43;;;-0.40;99.90;;;;;;2073067;28;20193;-82
2023/11/30 03:13:56;;;;;;;2.13;1.70;;;-0.40;99.90;;;;;;2072775;28;20185;-82
2023/11/30 03:14:56;;;;;;;2.43;2.20;;;-0.40;99.90;;;;;;2065517;28;20182;-83
2023/11/30 03:15:57;;;;;;;2.60;1.70;;;-0.40;99.90;;;;;;2053955;28;20188;-82
2023/11/30 03:16:58;;;;;;;2.27;1.87;;;-0.40;99.90;;;;;;2063119;28;20188;-82
2023/11/30 03:17:58;;;;;;;1.90;1.50;;;-0.40;99.90;;;;;;2064366;28;20237;-82
2023/11/30 03:18:59;;;;;;;1.73;1.43;;;-0.40;99.90;;;;;;2066368;28;20206;-82
2023/11/30 03:20:00;;;;;;;2.97;2.27;;;-0.40;99.90;;;;;;2073944;28;20698;-83
2023/11/30 03:21:00;;;;;;;2.77;1.90;;;-0.40;99.90;;;;;;2073057;28;20198;-82
2023/11/30 03:22:01;;;;;;;3.13;1.77;;;-0.40;99.90;;;;;;2074266;28;20232;-83
2023/11/30 03:23:03;;;;;;;3.43;1.30;;;-0.40;99.90;;;;;;2068827;28;20191;-82
2023/11/30 03:24:04;;;;;;;2.33;1.42;;;-0.40;99.90;;;;;;2073404;28;20577;-82
2023/11/30 03:25:05;;;;;;;1.40;1.23;;;-0.30;99.90;;;;;;2072296;28;20598;-81
2023/11/30 03:26:06;;;;;;;1.55;1.42;;;-0.40;99.90;;;;;;2063123;28;20600;-82
2023/11/30 03:27:11;;;;;;;3.53;1.43;;;-0.40;99.90;;;;;;2056312;28;20199;-82
2023/11/30 03:28:12;;;;;;;3.85;1.80;;;-0.30;99.90;;;;;;2051565;28;20223;-82
2023/11/30 03:29:13;;;;;;;3.60;2.30;;;-0.30;99.90;;;;;;2065908;28;20772;-83
2023/11/30 03:30:13;;;;;;;1.50;1.23;;;-0.20;99.90;;;;;;2066299;28;20280;-82
2023/11/30 03:31:14;;;;;;;3.30;1.80;;;-0.20;99.90;;;;;;2063987;28;20268;-82
2023/11/30 03:32:15;;;;;;;3.13;1.83;;;-0.10;99.90;;;;;;2071814;28;20229;-83
2023/11/30 03:33:16;;;;;;;2.17;1.67;;;-0.10;99.90;;;;;;2063499;28;20230;-83
2023/11/30 03:34:16;;;;;;;2.13;1.47;;;-0.20;99.90;;;;;;2061852;28;20226;-83
2023/11/30 03:35:17;;;;;;;3.63;2.20;;;-0.10;99.90;;;;;;2063368;28;20671;-83
2023/11/30 03:36:18;;;;;;;2.30;1.63;;;-0.10;99.90;;;;;;2064890;28;20230;-82
2023/11/30 03:37:18;;;;;;;1.63;1.20;;;-0.20;99.90;;;;;;2063691;28;20261;-82
2023/11/30 03:38:19;;;;;;;2.27;1.53;;;-0.20;99.90;;;;;;2064136;28;20308;-83
2023/11/30 03:39:20;;;;;;;1.60;1.20;;;-0.10;99.90;;;;;;2068362;28;20234;-84
2023/11/30 03:40:20;;;;;;;2.13;1.30;;;-0.20;99.90;;;;;;2067791;28;20699;-82
2023/11/30 03:41:24;;;;;;;4.60;1.57;;;-0.30;99.90;;;;;;2060580;28;20238;-82
2023/11/30 03:42:25;;;;;;;1.63;1.13;;;-0.20;99.90;;;;;;2063199;28;20279;-83
2023/11/30 03:43:25;;;;;;;3.27;1.70;;;-0.20;99.90;;;;;;2069492;28;20236;-83
2023/11/30 03:44:26;;;;;;;2.20;1.70;;;-0.20;99.90;;;;;;2064683;28;20222;-83
2023/11/30 03:45:31;;;;;;;2.83;1.43;;;-0.10;99.90;;;;;;2069034;28;20221;-82
2023/11/30 03:46:31;;;;;;;2.72;1.80;;;-0.20;99.90;;;;;;2067580;28;20225;-82
2023/11/30 03:47:32;;;;;;;1.53;1.20;;;-0.20;99.90;;;;;;2072743;28;20313;-83
2023/11/30 03:48:33;;;;;;;2.20;1.10;;;-0.20;99.90;;;;;;2080374;28;20216;-84
2023/11/30 03:49:33;;;;;;;2.50;1.60;;;-0.20;99.90;;;;;;2071961;28;20694;-83
2023/11/30 03:50:34;;;;;;;1.47;1.27;;;-0.20;99.90;;;;;;2073149;28;20209;-82
2023/11/30 03:51:35;;;;;;;1.80;1.13;;;-0.20;99.90;;;;;;2070059;28;20229;-83
2023/11/30 03:52:36;;;;;;;1.73;1.30;;;-0.20;99.90;;;;;;2064352;28;20270;-82
2023/11/30 03:53:37;;;;;;;2.60;1.48;;;-0.20;99.90;;;;;;2064226;28;20265;-82
2023/11/30 03:54:37;;;;;;;2.00;1.40;;;-0.20;99.90;;;;;;2066372;28;20226;-82
2023/11/30 03:55:38;;;;;;;2.37;1.40;;;-0.20;99.90;;;;;;2064159;28;20254;-82
2023/11/30 03:56:39;;;;;;;1.53;1.37;;;-0.20;99.90;;;;;;2063583;28;20261;-83
2023/11/30 03:57:39;;;;;;;2.00;1.60;;;-0.20;99.90;;;;;;2072008;28;20304;-82
2023/11/30 03:58:40;;;;;;;2.50;2.00;;;-0.10;99.90;;;;;;2074607;28;20307;-83
2023/11/30 03:59:41;;;;;;;2.03;1.60;;;-0.10;99.90;;;;;;2070548;28;20285;-82
2023/11/30 04:00:41;;;;;;;1.37;1.20;;;-0.10;99.90;;;;;;2066559;28;20222;-83
2023/11/30 04:01:42;;;;;;;1.60;1.47;;;0.00;99.90;;;;;;2076144;28;20225;-82
2023/11/30 04:02:43;;;;;;;2.27;1.73;;;0.00;99.90;;;;;;2072149;28;20218;-83
2023/11/30 04:03:43;;;;;;;2.80;1.57;;;0.00;99.90;;;;;;2064922;28;20222;-84
2023/11/30 04:04:44;;;;;;;3.10;1.70;;;-0.10;99.90;;;;;;2070552;28;20237;-83
2023/11/30 04:05:45;;;;;;;1.40;1.23;;;0.00;99.90;;;;;;2068605;28;20236;-83
2023/11/30 04:06:45;;;;;;;2.30;1.60;;;-0.10;99.90;;;;;;2073844;28;20214;-83
2023/11/30 04:07:48;;;;;;;2.60;1.53;;;0.00;99.90;;;;;;2072059;28;20217;-83
2023/11/30 04:08:52;;;;;;;1.63;1.10;;;0.00;99.90;;;;;;2066895;28;20253;-82
2023/11/30 04:09:53;;;;;;;2.08;1.48;;;0.10;99.90;;;;;;2063036;28;20220;-83
2023/11/30 04:10:54;;;;;;;1.87;1.43;;;0.20;99.90;;;;;;2069915;28;20240;-82
2023/11/30 04:11:54;;;;;;;1.50;1.33;;;0.20;99.90;;;;;;2079385;28;20292;-83
2023/11/30 04:12:55;;;;;;;1.50;1.40;;;0.20;99.90;;;;;;2068245;28;20328;-83
2023/11/30 04:14:06;;;;;;;1.93;1.10;;;0.30;99.90;;;;;;2065793;28;20202;-82
2023/11/30 04:15:07;;;;;;;2.90;1.83;;;0.30;99.90;;;;;;2072998;28;20209;-83
2023/11/30 04:16:09;;;;;;;1.55;1.30;;;0.30;99.90;;;;;;2079981;28;20666;-83
2023/11/30 04:17:10;;;;;;;1.48;1.20;;;0.30;99.90;;;;;;2066531;28;20293;-83
2023/11/30 04:18:11;;;;;;;3.15;1.98;;;0.20;99.90;;;;;;2073192;28;20243;-82
2023/11/30 04:19:12;;;;;;;2.38;1.90;;;0.10;99.90;;;;;;2062441;28;20288;-83
2023/11/30 04:20:13;;;;;;;3.00;1.67;;;0.20;99.90;;;;;;2060113;28;20833;-83
2023/11/30 04:21:14;;;;;;;5.33;2.37;;;0.20;99.90;;;;;;2071684;28;20266;-83
2023/11/30 04:22:15;;;;;;;2.13;1.40;;;0.10;99.90;;;;;;2055525;28;20265;-82
2023/11/30 04:23:16;;;;;;;3.03;1.92;;;0.10;99.90;;;;;;2055338;28;20237;-81
2023/11/30 04:24:17;;;;;;;2.70;1.57;;;0.10;99.90;;;;;;2063907;28;20228;-82
2023/11/30 04:25:17;;;;;;;2.67;1.90;;;0.10;99.90;;;;;;2065497;28;20210;-82
2023/11/30 04:26:18;;;;;;;1.60;1.40;;;0.10;99.90;;;;;;2064104;28;20309;-82
2023/11/30 04:27:19;;;;;;;2.27;1.40;;;0.10;99.90;;;;;;2070008;28;20221;-82
2023/11/30 04:28:21;;;;;;;2.20;1.50;;;0.00;99.90;;;;;;2073058;28;20217;-82
2023/11/30 04:29:21;;;;;;;4.05;2.80;;;0.00;99.90;;;;;;2079391;28;20494;-82
2023/11/30 04:30:22;;;;;;;5.60;2.87;;;0.00;99.90;;;;;;2071889;28;20604;-83
2023/11/30 04:31:23;;;;;;;6.47;3.27;;;0.00;99.90;;;;;;2063043;28;20238;-82
2023/11/30 04:32:23;;;;;;;3.00;1.93;;;0.00;99.90;;;;;;2058867;28;20238;-82
2023/11/30 04:33:24;;;;;;;3.40;2.27;;;0.00;99.90;;;;;;2047835;28;20714;-83
2023/11/30 04:34:25;;;;;;;1.57;1.00;;;0.00;99.90;;;;;;2067780;28;20706;-82
2023/11/30 04:35:25;;;;;;;2.67;1.57;;;-0.10;99.90;;;;;;2078953;28;20269;-83
2023/11/30 04:36:26;;;;;;;4.07;1.67;;;0.00;99.90;;;;;;2072220;28;20253;-83
2023/11/30 04:37:27;;;;;;;3.17;2.10;;;0.00;99.90;;;;;;2072610;28;20228;-83
2023/11/30 04:38:27;;;;;;;1.93;1.40;;;0.00;99.90;;;;;;2070127;28;20228;-82
2023/11/30 04:39:28;;;;;;;1.97;1.70;;;0.00;99.90;;;;;;2067142;28;20239;-82
2023/11/30 04:40:29;;;;;;;3.30;2.10;;;-0.10;99.90;;;;;;2071245;28;20291;-82
2023/11/30 04:41:29;;;;;;;2.63;1.63;;;0.00;99.90;;;;;;2073585;28;20244;-82
2023/11/30 04:42:30;;;;;;;3.03;1.90;;;0.00;99.90;;;;;;2070924;28;20859;-83
2023/11/30 04:43:31;;;;;;;4.07;2.20;;;0.00;99.90;;;;;;2068116;28;20226;-82
2023/11/30 04:44:31;;;;;;;2.13;1.50;;;0.00;99.90;;;;;;2074435;28;20215;-82
2023/11/30 04:45:32;;;;;;;3.93;1.93;;;0.00;99.90;;;;;;2083217;28;20230;-84
2023/11/30 04:46:33;;;;;;;2.10;1.33;;;0.10;99.90;;;;;;2082956;28;20256;-83
2023/11/30 04:47:33;;;;;;;2.00;1.30;;;0.10;99.90;;;;;;2071654;28;20218;-83
2023/11/30 04:48:34;;;;;;;1.77;1.27;;;0.20;99.90;;;;;;2069292;28;20220;-82
2023/11/30 04:49:35;;;;;;;1.00;0.80;;;0.20;99.90;;;;;;2066768;28;20238;-83
2023/11/30 04:50:35;;;;;;;1.13;1.00;;;0.20;99.90;;;;;;2072122;28;20222;-83
2023/11/30 04:51:37;;;;;;;1.93;0.90;;;0.20;99.90;;;;;;2071447;28;20589;-83
2023/11/30 04:52:37;;;;;;;1.80;1.10;;;0.20;99.90;;;;;;2063903;28;20712;-82
2023/11/30 04:53:38;;;;;;;3.80;0.80;;;0.20;99.90;;;;;;2059875;28;20233;-83
2023/11/30 04:54:39;;;;;;;1.57;1.03;;;0.20;99.90;;;;;;2061793;28;20258;-83
2023/11/30 04:55:39;;;;;;;0.77;0.77;;;0.20;99.90;;;;;;2060775;28;20254;-82
2023/11/30 04:56:40;;;;;;;1.13;1.03;;;0.20;99.90;;;;;;2067024;28;20217;-84
2023/11/30 04:57:41;;;;;;;1.13;0.70;;;0.20;99.90;;;;;;2064094;28;20225;-82
2023/11/30 04:58:42;;;;;;;0.73;0.73;;;0.30;99.90;;;;;;2066685;28;20223;-82
2023/11/30 04:59:45;;;;;;;0.70;0.70;;;0.30;99.90;;;;;;2076439;28;20223;-82
2023/11/30 05:00:47;;;;;;;1.10;0.70;;;0.20;99.90;;;;;;2072858;28;20328;-83
2023/11/30 05:01:48;;;;;;;0.82;0.80;;;0.20;99.90;;;;;;2066791;28;20226;-83
2023/11/30 05:02:55;;;;;;;1.20;0.90;;;0.20;99.90;;;;;;2068926;28;20696;-81
2023/11/30 05:03:57;;;;;;;1.63;1.30;;;0.20;99.90;;;;;;2073227;28;20217;-82
2023/11/30 05:04:58;;;;;;;2.00;0.80;;;0.20;99.90;;;;;;2071731;28;20211;-82
2023/11/30 05:05:58;;;;;;;1.03;0.80;;;0.20;99.90;;;;;;2071620;28;20193;-82
2023/11/30 05:06:59;;;;;;;0.80;0.70;;;0.10;99.90;;;;;;2071265;28;20186;-82
2023/11/30 05:08:00;;;;;;;1.10;0.90;;;0.10;99.90;;;;;;2055993;28;20184;-81
2023/11/30 05:09:00;;;;;;;3.70;1.20;;;0.20;99.90;;;;;;2058888;28;20187;-81
2023/11/30 05:10:01;;;;;;;1.23;1.00;;;0.20;99.90;;;;;;2062840;28;20195;-82
2023/11/30 05:11:03;;;;;;;1.07;0.97;;;0.20;99.90;;;;;;2063816;28;20734;-81
2023/11/30 05:12:04;;;;;;;1.48;1.20;;;0.20;99.90;;;;;;2062868;28;20206;-81
2023/11/30 05:13:04;;;;;;;1.20;1.10;;;0.10;99.90;;;;;;2061653;28;20622;-83
2023/11/30 05:14:05;;;;;;;1.93;1.60;;;0.10;99.90;;;;;;2062656;28;20197;-82
2023/11/30 05:15:06;;;;;;;1.43;1.10;;;0.10;99.90;;;;;;2062599;28;20188;-82
2023/11/30 05:16:08;;;;;;;2.28;1.33;;;0.10;99.90;;;;;;2080020;28;20178;-81
2023/11/30 05:17:08;;;;;;;1.40;1.30;;;0.00;99.90;;;;;;2063750;28;20279;-83
2023/11/30 05:18:09;;;;;;;2.00;1.27;;;-0.10;99.90;;;;;;2071263;28;20602;-82